Terminal Aerodrome Forecast
Issued by NWS

Home | Current Version | Previous Version | Text Only | Print | Product List | Glossary On
Versions: 1 2 3 4 5 6 7 8 9 10 11 12 13 14 15 16 17 18 19
000
FTUS41 KPBZ 191730
TAFLBE
TAF
KLBE 191730Z 1918/2018 12012G20KT P6SM SCT050 BKN100
     FM192200 13012G22KT 5SM -SHRA OVC035
     FM200500 14011G18KT 5SM -SHRA BKN012 OVC020
     FM201200 16010KT P6SM BKN040=

USA.gov is the U.S. government's official web portal to all federal, state and local government web resources and services.